Time;durP1;ratioP1;P1;durP2;ratioP2;P2;SDS_P1;SDS_P2;PMS_P1;PMS_P2;Temp;Humidity;BMP_temperature;BMP_pressure;BME280_temperature;BME280_humidity;BME280_pressure;Samples;Min_cycle;Max_cycle;Signal;HPM_P1;HPM_P2
2022/07/13 00:01:29;;;;;;;10.27;7.85;;;;;;;;;;5116712;28;20384;-74
2022/07/13 00:03:55;;;;;;;5.43;3.30;;;;;;;;;;5116325;28;20031;-76
2022/07/13 00:06:21;;;;;;;4.47;3.53;;;;;;;;;;5116990;28;20023;-72
2022/07/13 00:08:47;;;;;;;4.28;3.20;;;;;;;;;;5116852;28;20051;-75
2022/07/13 00:11:13;;;;;;;4.70;3.03;;;;;;;;;;5116874;28;20024;-75
2022/07/13 00:13:39;;;;;;;2.40;2.20;;;;;;;;;;5134720;27;20445;-76
2022/07/13 00:16:06;;;;;;;2.88;2.58;;;;;;;;;;5137338;27;20056;-76
2022/07/13 00:18:32;;;;;;;5.85;3.20;;;;;;;;;;5137253;27;20030;-76
2022/07/13 00:20:58;;;;;;;5.82;2.30;;;;;;;;;;5137282;27;20384;-76
2022/07/13 00:23:24;;;;;;;3.83;2.42;;;;;;;;;;5137160;27;20033;-76
2022/07/13 00:25:50;;;;;;;3.83;2.85;;;;;;;;;;5131956;27;20478;-76
2022/07/13 00:28:16;;;;;;;5.50;2.83;;;;;;;;;;5116599;28;20038;-76
2022/07/13 00:30:43;;;;;;;3.67;2.47;;;;;;;;;;5116424;28;20031;-76
2022/07/13 00:33:09;;;;;;;3.45;2.58;;;;;;;;;;5115838;28;20019;-77
2022/07/13 00:35:35;;;;;;;5.32;2.55;;;;;;;;;;5116088;28;20023;-76
2022/07/13 00:38:01;;;;;;;2.53;2.10;;;;;;;;;;5115839;28;20050;-76
2022/07/13 00:40:27;;;;;;;3.83;2.40;;;;;;;;;;5115843;28;20465;-76
2022/07/13 00:42:53;;;;;;;3.42;2.67;;;;;;;;;;5127329;27;20029;-76
2022/07/13 00:45:19;;;;;;;4.22;2.60;;;;;;;;;;5136327;27;20019;-75
2022/07/13 00:47:49;;;;;;;4.10;2.50;;;;;;;;;;5136384;27;20480;-76
2022/07/13 00:50:15;;;;;;;2.13;1.92;;;;;;;;;;5136261;27;20019;-76
2022/07/13 00:52:42;;;;;;;2.92;2.45;;;;;;;;;;5136163;27;20023;-77
2022/07/13 00:55:09;;;;;;;4.95;2.50;;;;;;;;;;5136128;27;20067;-77
2022/07/13 00:57:36;;;;;;;4.00;2.67;;;;;;;;;;5136036;27;20567;-77
2022/07/13 01:00:07;;;;;;;3.50;2.85;;;;;;;;;;5136244;27;20027;-77
2022/07/13 01:02:35;;;;;;;2.22;2.03;;;;;;;;;;5135930;27;20023;-77
2022/07/13 01:05:01;;;;;;;2.78;2.25;;;;;;;;;;5136165;27;20023;-77
2022/07/13 01:07:28;;;;;;;4.32;1.95;;;;;;;;;;5136034;27;20392;-77
2022/07/13 01:09:54;;;;;;;4.70;2.30;;;;;;;;;;5135943;27;20068;-77
2022/07/13 01:12:20;;;;;;;4.35;2.40;;;;;;;;;;5129102;27;20031;-77
2022/07/13 01:14:46;;;;;;;3.10;2.17;;;;;;;;;;5115349;28;20110;-77
2022/07/13 01:17:12;;;;;;;3.95;2.60;;;;;;;;;;5115179;28;20042;-77
2022/07/13 01:19:39;;;;;;;3.88;2.30;;;;;;;;;;5115243;28;20020;-77
2022/07/13 01:22:06;;;;;;;4.65;2.63;;;;;;;;;;5115398;28;20024;-77
2022/07/13 01:24:33;;;;;;;4.78;2.78;;;;;;;;;;5115410;28;20473;-77
2022/07/13 01:27:00;;;;;;;4.50;3.00;;;;;;;;;;5115330;28;20027;-78
2022/07/13 01:29:27;;;;;;;6.18;2.90;;;;;;;;;;5115383;28;20026;-77
2022/07/13 01:31:58;;;;;;;5.22;3.28;;;;;;;;;;5115395;28;20024;-77
2022/07/13 01:34:24;;;;;;;5.10;2.67;;;;;;;;;;5115413;28;20209;-78
2022/07/13 01:36:50;;;;;;;5.47;2.72;;;;;;;;;;5115196;28;20496;-78
2022/07/13 01:39:16;;;;;;;4.63;2.67;;;;;;;;;;5115199;28;20020;-77
2022/07/13 01:41:42;;;;;;;3.42;2.58;;;;;;;;;;5115854;27;20031;-77
2022/07/13 01:44:08;;;;;;;6.43;2.60;;;;;;;;;;5135636;27;20488;-78
2022/07/13 01:46:34;;;;;;;3.35;2.42;;;;;;;;;;5135551;27;20099;-77
2022/07/13 01:49:00;;;;;;;2.90;2.45;;;;;;;;;;5135563;27;20034;-77
2022/07/13 01:51:26;;;;;;;4.72;2.70;;;;;;;;;;5135507;27;20027;-74
2022/07/13 01:53:52;;;;;;;5.25;2.63;;;;;;;;;;5118531;27;20027;-75
2022/07/13 01:56:18;;;;;;;2.60;2.35;;;;;;;;;;5090133;28;20043;-74
2022/07/13 01:58:44;;;;;;;4.82;2.45;;;;;;;;;;5114779;28;20020;-74
2022/07/13 02:01:10;;;;;;;3.03;2.30;;;;;;;;;;5114827;28;20051;-75
2022/07/13 02:03:37;;;;;;;3.33;2.30;;;;;;;;;;5114641;28;20028;-75
2022/07/13 02:06:05;;;;;;;3.13;2.30;;;;;;;;;;5114734;28;20020;-75
2022/07/13 02:08:31;;;;;;;2.53;2.33;;;;;;;;;;5114527;28;20028;-74
2022/07/13 02:10:57;;;;;;;3.63;2.50;;;;;;;;;;5114512;28;20018;-75
2022/07/13 02:13:24;;;;;;;5.05;2.25;;;;;;;;;;5128564;27;20081;-76
2022/07/13 02:15:50;;;;;;;3.03;2.47;;;;;;;;;;5104015;27;20156;-76
2022/07/13 02:18:16;;;;;;;3.03;2.38;;;;;;;;;;5106019;28;20057;-77
2022/07/13 02:20:43;;;;;;;6.15;2.47;;;;;;;;;;5099802;28;20107;-76
2022/07/13 02:23:09;;;;;;;4.13;2.58;;;;;;;;;;5101551;28;20024;-76
2022/07/13 02:25:35;;;;;;;2.97;2.10;;;;;;;;;;5101069;28;20042;-76
2022/07/13 02:28:01;;;;;;;2.97;2.50;;;;;;;;;;5101263;28;20681;-77
2022/07/13 02:30:28;;;;;;;2.90;2.50;;;;;;;;;;5099365;28;20063;-76
2022/07/13 02:32:54;;;;;;;3.45;2.60;;;;;;;;;;5100576;28;20043;-74
2022/07/13 02:35:20;;;;;;;3.20;2.53;;;;;;;;;;5126293;27;20043;-72
2022/07/13 02:37:46;;;;;;;3.00;2.40;;;;;;;;;;5112849;28;20497;-75
2022/07/13 02:40:12;;;;;;;3.72;2.33;;;;;;;;;;5113863;28;20028;-75
2022/07/13 02:47:50;;;;;;;3.95;2.80;;;;;;;;;;5025609;22;20048;-74
2022/07/13 02:50:16;;;;;;;4.00;2.38;;;;;;;;;;5093581;28;20024;-74
2022/07/13 02:52:42;;;;;;;4.07;2.25;;;;;;;;;;5093441;28;20021;-72
2022/07/13 02:55:09;;;;;;;7.28;2.35;;;;;;;;;;5059056;28;20032;-71
2022/07/13 02:57:35;;;;;;;4.40;2.42;;;;;;;;;;5080107;28;20043;-75
2022/07/13 03:00:02;;;;;;;3.95;2.90;;;;;;;;;;5092372;28;20020;-75
2022/07/13 03:02:28;;;;;;;3.88;2.17;;;;;;;;;;5075205;28;20027;-73
2022/07/13 03:04:54;;;;;;;3.75;2.25;;;;;;;;;;5075207;28;20027;-72
2022/07/13 03:07:20;;;;;;;4.40;2.55;;;;;;;;;;5074401;28;20065;-72
2022/07/13 03:09:46;;;;;;;4.35;2.60;;;;;;;;;;5093341;28;20046;-74
2022/07/13 03:12:13;;;;;;;4.47;2.53;;;;;;;;;;5092786;28;20035;-73
2022/07/13 03:14:39;;;;;;;5.57;2.92;;;;;;;;;;5093502;28;20482;-73
2022/07/13 03:17:05;;;;;;;2.85;2.30;;;;;;;;;;5092468;28;20036;-72
2022/07/13 03:19:31;;;;;;;3.85;2.95;;;;;;;;;;5092904;28;20381;-73
2022/07/13 03:21:57;;;;;;;2.80;2.25;;;;;;;;;;5092773;28;20028;-73
2022/07/13 03:24:23;;;;;;;2.35;2.15;;;;;;;;;;5072434;28;20046;-74
2022/07/13 03:26:49;;;;;;;2.35;2.03;;;;;;;;;;5082671;28;20046;-75
2022/07/13 03:29:15;;;;;;;3.53;2.40;;;;;;;;;;5074437;28;20028;-76
2022/07/13 03:31:41;;;;;;;5.25;2.40;;;;;;;;;;5092795;28;20016;-76
2022/07/13 03:34:07;;;;;;;3.63;2.20;;;;;;;;;;5092622;28;20032;-75
2022/07/13 03:36:34;;;;;;;2.63;2.22;;;;;;;;;;5074796;28;20082;-76
2022/07/13 03:39:01;;;;;;;5.05;2.65;;;;;;;;;;5092755;28;20031;-72
2022/07/13 03:41:27;;;;;;;3.67;2.58;;;;;;;;;;5069691;28;20028;-74
2022/07/13 03:43:53;;;;;;;6.95;3.40;;;;;;;;;;5055638;28;20035;-77
2022/07/13 03:46:19;;;;;;;12.32;6.47;;;;;;;;;;5054198;28;20105;-77
2022/07/13 03:48:46;;;;;;;8.30;5.07;;;;;;;;;;5072350;28;20035;-75
2022/07/13 03:51:12;;;;;;;48.25;43.25;;;;;;;;;;5054097;28;20628;-75
2022/07/13 03:53:38;;;;;;;57.22;52.00;;;;;;;;;;5072277;28;20025;-76
2022/07/13 03:56:05;;;;;;;8.20;5.35;;;;;;;;;;5072046;28;20031;-75
2022/07/13 03:58:31;;;;;;;7.95;5.63;;;;;;;;;;5072208;28;20436;-75
2022/07/13 04:00:57;;;;;;;5.63;3.97;;;;;;;;;;5077938;28;20279;-75
2022/07/13 04:03:23;;;;;;;5.38;2.90;;;;;;;;;;5092347;28;20021;-74
2022/07/13 04:05:49;;;;;;;9.27;3.40;;;;;;;;;;5073446;28;20082;-73
2022/07/13 04:08:15;;;;;;;6.20;2.70;;;;;;;;;;5074563;28;20156;-73
2022/07/13 04:10:41;;;;;;;6.57;2.90;;;;;;;;;;5087114;28;20470;-74
2022/07/13 04:13:07;;;;;;;5.40;2.88;;;;;;;;;;5080144;28;20050;-75
2022/07/13 04:15:33;;;;;;;5.63;3.67;;;;;;;;;;5054159;28;20028;-75
2022/07/13 04:18:00;;;;;;;6.45;3.47;;;;;;;;;;5054013;28;20131;-75
2022/07/13 04:20:26;;;;;;;4.28;3.15;;;;;;;;;;5054305;28;20560;-75
2022/07/13 04:22:52;;;;;;;6.15;3.85;;;;;;;;;;5072593;28;20153;-76
2022/07/13 04:25:18;;;;;;;7.68;3.88;;;;;;;;;;5070301;28;20025;-74
2022/07/13 04:27:44;;;;;;;4.85;3.60;;;;;;;;;;5045776;28;20020;-77
2022/07/13 04:30:10;;;;;;;7.22;3.58;;;;;;;;;;5086821;28;20021;-73
2022/07/13 04:32:36;;;;;;;6.00;3.55;;;;;;;;;;5066111;28;20155;-74
2022/07/13 04:35:02;;;;;;;7.85;3.50;;;;;;;;;;5051570;28;20032;-76
2022/07/13 04:37:28;;;;;;;6.63;4.40;;;;;;;;;;5051335;28;20075;-74
2022/07/13 04:39:55;;;;;;;8.70;3.47;;;;;;;;;;5075573;28;20021;-74
2022/07/13 04:42:21;;;;;;;7.78;3.20;;;;;;;;;;5075479;28;20031;-74
2022/07/13 04:44:47;;;;;;;7.13;3.13;;;;;;;;;;5075623;28;20432;-74
2022/07/13 04:47:13;;;;;;;6.85;3.03;;;;;;;;;;5075591;28;20056;-74
2022/07/13 04:49:39;;;;;;;3.83;3.05;;;;;;;;;;5075577;28;20025;-74
2022/07/13 04:52:05;;;;;;;10.32;5.68;;;;;;;;;;5075444;28;20133;-74
2022/07/13 04:54:31;;;;;;;5.32;3.30;;;;;;;;;;5075384;28;20028;-74
2022/07/13 04:56:57;;;;;;;13.15;4.07;;;;;;;;;;5075417;28;20478;-74
2022/07/13 04:59:24;;;;;;;6.30;3.25;;;;;;;;;;5075278;28;20020;-74
2022/07/13 05:01:50;;;;;;;6.05;2.88;;;;;;;;;;5075388;28;20028;-74
2022/07/13 05:04:16;;;;;;;5.47;3.08;;;;;;;;;;5075217;28;20028;-74
2022/07/13 05:06:42;;;;;;;5.25;2.92;;;;;;;;;;5075303;28;20024;-74
2022/07/13 05:09:08;;;;;;;5.13;2.80;;;;;;;;;;5075213;28;20028;-74
2022/07/13 05:11:34;;;;;;;6.32;3.55;;;;;;;;;;5075415;28;20021;-74
2022/07/13 05:14:00;;;;;;;9.73;3.92;;;;;;;;;;5074824;28;20021;-74
2022/07/13 05:16:26;;;;;;;3.78;2.78;;;;;;;;;;5075335;28;20040;-74
2022/07/13 05:18:52;;;;;;;3.88;2.78;;;;;;;;;;5075379;28;20036;-74
2022/07/13 05:21:19;;;;;;;4.68;2.55;;;;;;;;;;5074890;28;20055;-74
2022/07/13 05:23:45;;;;;;;5.82;2.92;;;;;;;;;;5074761;28;20032;-74
2022/07/13 05:26:11;;;;;;;6.05;2.88;;;;;;;;;;5075237;28;20053;-74
2022/07/13 05:28:37;;;;;;;4.25;2.85;;;;;;;;;;5074771;28;20029;-74
2022/07/13 05:31:03;;;;;;;3.20;2.85;;;;;;;;;;5074857;28;20431;-74
2022/07/13 05:33:29;;;;;;;5.88;2.60;;;;;;;;;;5074721;28;20028;-74
2022/07/13 05:35:56;;;;;;;4.55;2.95;;;;;;;;;;5074800;28;20016;-74
2022/07/13 05:38:22;;;;;;;3.38;2.72;;;;;;;;;;5074467;28;20036;-74
2022/07/13 05:40:48;;;;;;;6.07;3.08;;;;;;;;;;5074578;28;20016;-74
2022/07/13 05:43:14;;;;;;;6.85;2.67;;;;;;;;;;5074244;28;20050;-74
2022/07/13 05:45:41;;;;;;;16.88;4.43;;;;;;;;;;5074431;28;20033;-74
2022/07/13 05:48:08;;;;;;;6.55;2.63;;;;;;;;;;5074442;28;20059;-73
2022/07/13 05:50:34;;;;;;;4.22;2.60;;;;;;;;;;5074258;28;20052;-74
2022/07/13 05:53:00;;;;;;;5.25;2.67;;;;;;;;;;5074181;28;20028;-74
2022/07/13 05:55:26;;;;;;;5.25;2.97;;;;;;;;;;5056751;28;20027;-74
2022/07/13 05:57:53;;;;;;;6.78;2.85;;;;;;;;;;5056088;28;20056;-74
2022/07/13 06:00:20;;;;;;;20.40;3.70;;;;;;;;;;5074179;28;20013;-74
2022/07/13 06:02:46;;;;;;;7.95;3.40;;;;;;;;;;5074045;28;20428;-75
2022/07/13 06:05:12;;;;;;;6.60;2.40;;;;;;;;;;5074169;28;20096;-74
2022/07/13 06:07:38;;;;;;;4.43;2.35;;;;;;;;;;5055518;28;20089;-75
2022/07/13 06:10:05;;;;;;;6.60;2.45;;;;;;;;;;5073923;28;20074;-75
2022/07/13 06:12:31;;;;;;;7.70;2.63;;;;;;;;;;5073590;28;20222;-74
2022/07/13 06:14:57;;;;;;;9.13;2.78;;;;;;;;;;5073742;28;20510;-74
2022/07/13 06:17:23;;;;;;;3.38;2.30;;;;;;;;;;5074141;28;20178;-75
2022/07/13 06:19:50;;;;;;;7.50;2.78;;;;;;;;;;5073811;28;20021;-74
2022/07/13 06:22:16;;;;;;;5.00;2.78;;;;;;;;;;5074004;28;20020;-74
2022/07/13 06:24:43;;;;;;;3.03;2.05;;;;;;;;;;5074223;28;20020;-75
2022/07/13 06:27:09;;;;;;;4.65;2.70;;;;;;;;;;5073518;28;20090;-74
2022/07/13 06:29:36;;;;;;;10.60;2.50;;;;;;;;;;5073574;28;20020;-74
2022/07/13 06:32:02;;;;;;;5.50;2.13;;;;;;;;;;5073558;28;20029;-74
2022/07/13 06:34:28;;;;;;;4.55;2.17;;;;;;;;;;5073465;28;20055;-75
2022/07/13 06:36:54;;;;;;;3.97;2.40;;;;;;;;;;5073350;28;20056;-74
2022/07/13 06:39:20;;;;;;;9.63;3.03;;;;;;;;;;5073127;28;20020;-74
2022/07/13 06:41:46;;;;;;;2.50;2.17;;;;;;;;;;5073251;28;20056;-74
2022/07/13 06:44:13;;;;;;;9.98;2.50;;;;;;;;;;5073250;28;20096;-74
2022/07/13 06:46:40;;;;;;;3.85;2.20;;;;;;;;;;5073037;28;20044;-74
2022/07/13 06:49:06;;;;;;;20.63;3.67;;;;;;;;;;5073252;28;20025;-74
2022/07/13 06:51:32;;;;;;;8.50;2.78;;;;;;;;;;5073297;28;20044;-74
2022/07/13 06:53:59;;;;;;;6.65;2.42;;;;;;;;;;5073644;28;20103;-75
2022/07/13 06:56:25;;;;;;;7.75;3.00;;;;;;;;;;5072940;28;20029;-75
2022/07/13 06:58:51;;;;;;;4.32;2.60;;;;;;;;;;5072764;28;20040;-75
2022/07/13 07:01:17;;;;;;;4.57;2.78;;;;;;;;;;5072902;28;20104;-74
2022/07/13 07:03:43;;;;;;;2.75;2.50;;;;;;;;;;5072869;28;20467;-74
2022/07/13 07:06:09;;;;;;;4.72;3.05;;;;;;;;;;5072977;28;20028;-74
2022/07/13 07:08:35;;;;;;;13.65;2.80;;;;;;;;;;5073624;28;20028;-74
2022/07/13 07:11:01;;;;;;;5.28;2.40;;;;;;;;;;5072892;28;20478;-75
2022/07/13 07:13:27;;;;;;;4.55;2.40;;;;;;;;;;5072732;28;20035;-75
2022/07/13 07:15:53;;;;;;;5.13;2.53;;;;;;;;;;5072950;28;20067;-75
2022/07/13 07:18:23;;;;;;;6.80;2.60;;;;;;;;;;5072858;28;20044;-75
2022/07/13 07:20:49;;;;;;;6.88;3.22;;;;;;;;;;5072856;28;20025;-74
2022/07/13 07:23:15;;;;;;;6.20;3.13;;;;;;;;;;5054202;28;20402;-76
2022/07/13 07:25:41;;;;;;;4.60;2.72;;;;;;;;;;5072635;28;20100;-75
2022/07/13 07:28:09;;;;;;;4.15;2.53;;;;;;;;;;5072734;28;20036;-75
2022/07/13 07:30:36;;;;;;;5.72;3.33;;;;;;;;;;5072712;28;20458;-74
2022/07/13 07:33:02;;;;;;;7.78;2.58;;;;;;;;;;5072844;28;20058;-75
2022/07/13 07:35:28;;;;;;;4.05;2.63;;;;;;;;;;5072787;28;20036;-74
2022/07/13 07:37:54;;;;;;;10.77;5.43;;;;;;;;;;5054790;28;20490;-74
2022/07/13 07:40:20;;;;;;;6.78;2.95;;;;;;;;;;5054053;28;20033;-74
2022/07/13 07:42:47;;;;;;;4.32;3.00;;;;;;;;;;5072468;28;20100;-74
2022/07/13 07:45:13;;;;;;;6.57;2.67;;;;;;;;;;5054178;28;20073;-74
2022/07/13 07:47:39;;;;;;;8.00;3.25;;;;;;;;;;5072131;28;20044;-74
2022/07/13 07:50:06;;;;;;;9.80;3.92;;;;;;;;;;5092789;28;20406;-74
2022/07/13 07:52:33;;;;;;;3.80;2.80;;;;;;;;;;5092691;28;20036;-74
2022/07/13 07:54:59;;;;;;;3.63;2.78;;;;;;;;;;5092526;28;20538;-74
2022/07/13 07:57:25;;;;;;;3.85;2.80;;;;;;;;;;5092395;28;20032;-74
2022/07/13 07:59:51;;;;;;;6.65;3.33;;;;;;;;;;5092547;28;20377;-74
2022/07/13 08:02:17;;;;;;;4.65;3.15;;;;;;;;;;5092795;28;20098;-74
2022/07/13 08:04:44;;;;;;;13.18;5.90;;;;;;;;;;5092600;28;20410;-75
2022/07/13 08:07:11;;;;;;;8.45;4.78;;;;;;;;;;5092496;28;20496;-74
2022/07/13 08:09:37;;;;;;;8.38;3.40;;;;;;;;;;5092671;28;20432;-74
2022/07/13 08:12:04;;;;;;;5.15;3.30;;;;;;;;;;5093860;28;20046;-75
2022/07/13 08:14:30;;;;;;;4.35;2.88;;;;;;;;;;5096326;28;20059;-74
2022/07/13 08:16:57;;;;;;;5.85;3.40;;;;;;;;;;5096537;28;20119;-74
2022/07/13 08:19:24;;;;;;;5.55;4.00;;;;;;;;;;5077831;28;20043;-74
2022/07/13 08:21:50;;;;;;;10.38;3.40;;;;;;;;;;5096323;28;20051;-74
2022/07/13 08:24:16;;;;;;;5.00;2.78;;;;;;;;;;5096268;28;20030;-75
2022/07/13 08:26:43;;;;;;;6.68;2.45;;;;;;;;;;5096134;28;20111;-75
2022/07/13 08:29:09;;;;;;;4.65;2.60;;;;;;;;;;5095881;28;20058;-74
2022/07/13 08:31:35;;;;;;;10.40;2.83;;;;;;;;;;5096041;28;20024;-75
2022/07/13 08:39:31;;;;;;;5.30;2.78;;;;;;;;;;5095939;28;20073;-77
2022/07/13 08:42:04;;;;;;;8.75;2.58;;;;;;;;;;5095871;28;20024;-76
2022/07/13 08:44:31;;;;;;;8.10;3.10;;;;;;;;;;5077677;28;20162;-77
2022/07/13 08:47:00;;;;;;;4.75;2.53;;;;;;;;;;5083702;28;20045;-75
2022/07/13 08:49:26;;;;;;;5.82;2.67;;;;;;;;;;5075612;28;20466;-77
2022/07/13 08:51:52;;;;;;;5.05;2.70;;;;;;;;;;5075473;28;20021;-78
2022/07/13 08:54:19;;;;;;;4.03;2.20;;;;;;;;;;5075316;28;20024;-78
2022/07/13 08:56:45;;;;;;;4.82;2.53;;;;;;;;;;5075325;28;20462;-76
2022/07/13 08:59:12;;;;;;;3.80;2.53;;;;;;;;;;5075398;28;20032;-76
2022/07/13 09:01:39;;;;;;;5.70;2.60;;;;;;;;;;5075410;28;20051;-78
2022/07/13 09:04:09;;;;;;;3.58;2.45;;;;;;;;;;5075237;28;20070;-76
2022/07/13 09:06:47;;;;;;;6.07;2.40;;;;;;;;;;5075618;28;20026;-75
2022/07/13 09:09:31;;;;;;;7.72;2.88;;;;;;;;;;5075036;28;20019;-75
2022/07/13 09:12:17;;;;;;;6.85;3.20;;;;;;;;;;5075054;28;20482;-75
2022/07/13 09:14:44;;;;;;;4.53;2.80;;;;;;;;;;5074817;28;20020;-75
2022/07/13 09:17:27;;;;;;;5.13;2.72;;;;;;;;;;5056878;28;20078;-75
2022/07/13 09:19:53;;;;;;;9.00;3.55;;;;;;;;;;5056874;28;20557;-75
2022/07/13 09:22:20;;;;;;;9.43;3.25;;;;;;;;;;5056691;28;20131;-77
2022/07/13 09:24:46;;;;;;;6.20;2.72;;;;;;;;;;5057174;28;20033;-76
2022/07/13 09:27:13;;;;;;;6.40;2.67;;;;;;;;;;5056648;28;20028;-77
2022/07/13 09:29:39;;;;;;;13.65;4.05;;;;;;;;;;5074716;28;20027;-75
2022/07/13 09:32:07;;;;;;;8.68;2.72;;;;;;;;;;5074790;28;20021;-74
2022/07/13 09:34:47;;;;;;;5.40;2.60;;;;;;;;;;5074929;28;20107;-76
2022/07/13 09:37:14;;;;;;;5.70;2.38;;;;;;;;;;5074625;28;20033;-76
2022/07/13 09:39:58;;;;;;;4.80;2.30;;;;;;;;;;5074453;28;20104;-78
2022/07/13 09:42:28;;;;;;;5.65;2.50;;;;;;;;;;5074386;28;20052;-76
2022/07/13 09:47:40;;;;;;;4.72;3.15;;;;;;;;;;5074227;28;20071;-77
2022/07/13 09:50:07;;;;;;;3.80;2.25;;;;;;;;;;5074586;28;20017;-77
2022/07/13 09:52:33;;;;;;;4.15;2.17;;;;;;;;;;5074497;28;20073;-77
2022/07/13 09:55:00;;;;;;;4.38;2.30;;;;;;;;;;5074322;28;20478;-76
2022/07/13 09:57:28;;;;;;;4.05;2.50;;;;;;;;;;5074167;28;20119;-76
2022/07/13 09:59:54;;;;;;;5.13;3.08;;;;;;;;;;5074142;28;20023;-77
2022/07/13 10:02:20;;;;;;;6.28;2.45;;;;;;;;;;5074137;28;20093;-76
2022/07/13 10:04:48;;;;;;;6.35;2.90;;;;;;;;;;5074158;28;20074;-75
2022/07/13 10:07:15;;;;;;;6.03;2.47;;;;;;;;;;5073907;28;20063;-76
2022/07/13 10:09:41;;;;;;;6.75;2.15;;;;;;;;;;5073989;28;20032;-75
2022/07/13 10:12:08;;;;;;;7.43;2.88;;;;;;;;;;5073771;28;20032;-75
2022/07/13 10:14:34;;;;;;;5.05;2.28;;;;;;;;;;5073748;28;20051;-75
2022/07/13 10:17:01;;;;;;;4.90;2.58;;;;;;;;;;5074011;28;20040;-78
2022/07/13 10:19:28;;;;;;;3.80;2.60;;;;;;;;;;5056127;28;20032;-75
2022/07/13 10:21:54;;;;;;;5.88;2.55;;;;;;;;;;5073695;28;20025;-75
2022/07/13 10:24:20;;;;;;;4.38;3.10;;;;;;;;;;5073640;28;20098;-78
2022/07/13 10:26:48;;;;;;;4.07;2.45;;;;;;;;;;5073497;28;20117;-78
2022/07/13 10:29:16;;;;;;;3.58;2.50;;;;;;;;;;5073458;28;20024;-77
2022/07/13 10:31:43;;;;;;;6.32;3.10;;;;;;;;;;5073356;28;20028;-77
2022/07/13 10:34:10;;;;;;;5.25;2.50;;;;;;;;;;5072791;28;20056;-77
2022/07/13 10:36:51;;;;;;;4.75;3.10;;;;;;;;;;5073432;28;20457;-76
2022/07/13 10:39:18;;;;;;;4.18;2.72;;;;;;;;;;5073385;28;20098;-79
2022/07/13 10:42:02;;;;;;;3.33;2.08;;;;;;;;;;5073219;28;20088;-77
2022/07/13 10:44:36;;;;;;;5.22;2.53;;;;;;;;;;5073145;28;20035;-77
2022/07/13 10:47:03;;;;;;;8.57;2.97;;;;;;;;;;5064389;28;20060;-76
2022/07/13 10:49:32;;;;;;;3.92;2.05;;;;;;;;;;5073190;28;20078;-78
2022/07/13 10:52:17;;;;;;;6.80;2.88;;;;;;;;;;5073226;28;20036;-76
2022/07/13 10:55:02;;;;;;;4.15;1.77;;;;;;;;;;5073087;28;20498;-77
2022/07/13 10:57:29;;;;;;;3.80;2.58;;;;;;;;;;5073006;28;20032;-74
2022/07/13 11:00:00;;;;;;;7.82;2.15;;;;;;;;;;5073056;28;20021;-77
2022/07/13 11:03:03;;;;;;;4.10;2.92;;;;;;;;;;5073082;28;20478;-78
2022/07/13 11:05:33;;;;;;;3.35;2.10;;;;;;;;;;5031103;28;20590;-78
2022/07/13 11:08:10;;;;;;;5.57;2.42;;;;;;;;;;5031052;28;20061;-77
2022/07/13 11:10:37;;;;;;;4.55;2.05;;;;;;;;;;5030795;28;20029;-77
2022/07/13 11:13:03;;;;;;;6.30;2.40;;;;;;;;;;5030682;28;20117;-77
2022/07/13 11:15:47;;;;;;;2.10;1.80;;;;;;;;;;5030600;28;20025;-77
2022/07/13 11:18:23;;;;;;;3.33;2.33;;;;;;;;;;5030674;28;20036;-75
2022/07/13 11:20:58;;;;;;;9.48;3.92;;;;;;;;;;5030700;28;20038;-77
2022/07/13 11:26:18;;;;;;;5.43;2.30;;;;;;;;;;5030815;28;20037;-75
2022/07/13 11:29:07;;;;;;;9.18;2.88;;;;;;;;;;5030738;28;20021;-77
2022/07/13 11:31:33;;;;;;;8.75;3.22;;;;;;;;;;4952419;29;20043;-78
2022/07/13 11:33:59;;;;;;;8.40;2.75;;;;;;;;;;4952657;29;20505;-78
2022/07/13 11:36:25;;;;;;;5.03;2.30;;;;;;;;;;4952443;29;20495;-79
2022/07/13 11:38:52;;;;;;;5.63;2.63;;;;;;;;;;4962804;28;20050;-78
2022/07/13 11:41:20;;;;;;;4.95;2.75;;;;;;;;;;4991214;28;20027;-77
2022/07/13 11:43:49;;;;;;;7.35;2.33;;;;;;;;;;4990977;28;20042;-78
2022/07/13 11:46:22;;;;;;;4.15;2.40;;;;;;;;;;4986973;28;20058;-78
2022/07/13 11:48:48;;;;;;;4.97;2.47;;;;;;;;;;4975656;28;20046;-78
2022/07/13 11:51:17;;;;;;;4.07;2.15;;;;;;;;;;4975815;28;20026;-74
2022/07/13 11:53:43;;;;;;;5.32;2.67;;;;;;;;;;4959465;28;20070;-76
2022/07/13 11:56:09;;;;;;;8.35;2.72;;;;;;;;;;4959543;28;20129;-78
2022/07/13 11:58:39;;;;;;;4.45;2.30;;;;;;;;;;4959347;28;20162;-78
2022/07/13 12:01:11;;;;;;;4.00;2.60;;;;;;;;;;4975683;28;20067;-79
2022/07/13 12:03:37;;;;;;;3.33;2.22;;;;;;;;;;4975659;28;20026;-78
2022/07/13 12:06:05;;;;;;;3.28;2.22;;;;;;;;;;4974906;28;20109;-79
2022/07/13 12:08:33;;;;;;;9.32;4.93;;;;;;;;;;5025553;28;20535;-78
2022/07/13 12:10:59;;;;;;;5.85;2.75;;;;;;;;;;5076016;28;20497;-78
2022/07/13 12:13:25;;;;;;;3.67;2.30;;;;;;;;;;5075906;28;20025;-78
2022/07/13 12:15:52;;;;;;;5.22;2.33;;;;;;;;;;5075748;28;20032;-77
2022/07/13 12:18:19;;;;;;;3.88;2.67;;;;;;;;;;5075784;28;20419;-78
2022/07/13 12:20:45;;;;;;;5.32;2.20;;;;;;;;;;5076287;28;20051;-74
2022/07/13 12:23:11;;;;;;;3.53;2.20;;;;;;;;;;5075677;28;20071;-79
2022/07/13 12:25:39;;;;;;;3.92;2.13;;;;;;;;;;5075462;28;20482;-75
2022/07/13 12:28:06;;;;;;;4.32;2.88;;;;;;;;;;5075682;28;20021;-79
2022/07/13 12:30:33;;;;;;;6.43;2.60;;;;;;;;;;5075460;28;20383;-76
2022/07/13 12:33:04;;;;;;;5.78;2.35;;;;;;;;;;5057526;28;20032;-77
2022/07/13 12:35:37;;;;;;;2.50;1.67;;;;;;;;;;5075099;28;20103;-77
2022/07/13 12:38:08;;;;;;;3.20;2.08;;;;;;;;;;5075617;28;20032;-76
2022/07/13 12:40:45;;;;;;;3.40;2.40;;;;;;;;;;5075385;28;20113;-77
2022/07/13 12:43:30;;;;;;;7.75;3.00;;;;;;;;;;5075040;28;20033;-76
2022/07/13 12:46:03;;;;;;;5.85;3.00;;;;;;;;;;5075132;28;20129;-77
2022/07/13 12:48:30;;;;;;;4.05;2.40;;;;;;;;;;5075560;28;20056;-77
2022/07/13 12:50:59;;;;;;;5.22;3.55;;;;;;;;;;5075193;28;20067;-77
2022/07/13 12:53:26;;;;;;;6.30;2.72;;;;;;;;;;5075171;28;20016;-78
2022/07/13 12:55:53;;;;;;;4.30;2.28;;;;;;;;;;5075265;28;20021;-78
2022/07/13 12:58:20;;;;;;;3.30;2.20;;;;;;;;;;5074878;28;20028;-76
2022/07/13 13:00:46;;;;;;;3.45;2.25;;;;;;;;;;5056603;28;20028;-78
2022/07/13 13:03:12;;;;;;;4.90;2.15;;;;;;;;;;5075810;28;20179;-77
2022/07/13 13:05:39;;;;;;;5.65;2.60;;;;;;;;;;5075350;28;20387;-76
2022/07/13 13:08:05;;;;;;;4.35;2.55;;;;;;;;;;5075044;28;20027;-77
2022/07/13 13:10:31;;;;;;;4.47;2.80;;;;;;;;;;5075013;28;20029;-77
2022/07/13 13:12:57;;;;;;;3.17;2.58;;;;;;;;;;5074795;28;20096;-77
2022/07/13 13:15:23;;;;;;;2.10;1.88;;;;;;;;;;5056924;28;20024;-78
2022/07/13 13:17:50;;;;;;;3.13;2.22;;;;;;;;;;5074776;28;20094;-78
2022/07/13 13:20:16;;;;;;;8.52;2.78;;;;;;;;;;5075082;28;20024;-79
2022/07/13 13:22:42;;;;;;;3.63;2.50;;;;;;;;;;5056721;28;20020;-78
2022/07/13 13:25:09;;;;;;;3.50;2.45;;;;;;;;;;5056739;28;20370;-78
2022/07/13 13:27:35;;;;;;;3.65;2.10;;;;;;;;;;5074879;28;20560;-76
2022/07/13 13:32:46;;;;;;;4.95;1.90;;;;;;;;;;5074810;28;20480;-77
2022/07/13 13:35:12;;;;;;;3.50;2.00;;;;;;;;;;5074532;28;20031;-76
2022/07/13 13:37:38;;;;;;;4.90;2.17;;;;;;;;;;5074591;28;20085;-78
2022/07/13 13:40:05;;;;;;;6.22;2.47;;;;;;;;;;5074501;28;20031;-75
2022/07/13 13:42:32;;;;;;;4.53;2.50;;;;;;;;;;5074306;28;20450;-78
2022/07/13 13:44:58;;;;;;;6.40;2.88;;;;;;;;;;5074348;28;20159;-77
2022/07/13 13:47:24;;;;;;;2.72;2.40;;;;;;;;;;5055369;28;20049;-78
2022/07/13 13:49:50;;;;;;;2.85;2.00;;;;;;;;;;5074223;28;20028;-78
2022/07/13 13:52:17;;;;;;;4.10;2.80;;;;;;;;;;5074347;28;20482;-78
2022/07/13 13:54:43;;;;;;;2.92;2.30;;;;;;;;;;5074228;28;20466;-78
2022/07/13 13:57:09;;;;;;;2.22;2.03;;;;;;;;;;5074220;28;20078;-78
2022/07/13 13:59:35;;;;;;;4.55;2.20;;;;;;;;;;5074140;28;20024;-79
2022/07/13 14:02:02;;;;;;;5.43;2.60;;;;;;;;;;5073947;28;20074;-77
2022/07/13 14:04:29;;;;;;;5.47;2.92;;;;;;;;;;5074122;28;20470;-78
2022/07/13 14:06:55;;;;;;;5.18;3.40;;;;;;;;;;5073925;28;20021;-78
2022/07/13 14:09:21;;;;;;;6.65;2.75;;;;;;;;;;5072833;28;20028;-77
2022/07/13 14:11:47;;;;;;;4.93;2.40;;;;;;;;;;5074231;28;20025;-78
2022/07/13 14:14:13;;;;;;;3.05;1.83;;;;;;;;;;5073671;28;20054;-78
2022/07/13 14:16:39;;;;;;;4.20;3.28;;;;;;;;;;5074031;28;20082;-77
2022/07/13 14:19:06;;;;;;;10.63;3.63;;;;;;;;;;5073649;28;20021;-78
2022/07/13 14:21:32;;;;;;;4.45;2.15;;;;;;;;;;5073601;28;20096;-79
2022/07/13 14:23:58;;;;;;;6.88;4.05;;;;;;;;;;5073737;28;20029;-78
2022/07/13 14:26:24;;;;;;;6.20;2.55;;;;;;;;;;5073670;28;20146;-78
2022/07/13 14:28:50;;;;;;;3.65;2.20;;;;;;;;;;5073535;28;20096;-77
2022/07/13 14:31:16;;;;;;;4.85;2.75;;;;;;;;;;5073586;28;20021;-78
2022/07/13 14:33:43;;;;;;;5.93;2.47;;;;;;;;;;5073467;28;20491;-77
2022/07/13 14:36:09;;;;;;;4.97;2.30;;;;;;;;;;5073141;28;20032;-78
2022/07/13 14:38:36;;;;;;;2.63;2.10;;;;;;;;;;5073045;28;20272;-77
2022/07/13 14:41:02;;;;;;;5.45;2.45;;;;;;;;;;5072854;28;20027;-78
2022/07/13 14:43:31;;;;;;;5.63;2.97;;;;;;;;;;5072984;28;20095;-78
2022/07/13 14:45:57;;;;;;;6.95;2.40;;;;;;;;;;5072769;28;20035;-78
2022/07/13 14:48:24;;;;;;;5.47;2.20;;;;;;;;;;5054836;28;20029;-78
2022/07/13 14:50:50;;;;;;;2.75;1.90;;;;;;;;;;5054829;28;20035;-79
2022/07/13 14:53:16;;;;;;;3.95;1.80;;;;;;;;;;5055269;28;20019;-78
2022/07/13 14:55:42;;;;;;;6.05;2.00;;;;;;;;;;5072776;28;20024;-78
2022/07/13 14:58:08;;;;;;;2.97;2.53;;;;;;;;;;5054729;28;20033;-78
2022/07/13 15:00:34;;;;;;;9.38;3.63;;;;;;;;;;5072825;28;20103;-78
2022/07/13 15:03:00;;;;;;;5.57;3.17;;;;;;;;;;5072631;28;20025;-78